Terminal Aerodrome Forecast
Issued by NWS Greer, SC

Home | Current Version | Previous Version | Text Only | Print | Product List | Glossary On
Versions: 1 2 3 4 5 6 7 8 9 10 11 12 13 14 15 16 17 18 19 20 21 22 23
000
FTUS42 KGSP 270540
TAFCLT
TAF
KCLT 270540Z 2706/2806 22003KT P6SM FEW250
     FM271800 11006KT P6SM SCT045
     FM271900 11006KT P6SM BKN050 PROB30 2719/2723 4SM -TSRA
      OVC050CB
     FM272300 07007KT P6SM BKN045
     FM280100 06007KT P6SM SCT050=

USA.gov is the U.S. government's official web portal to all federal, state and local government web resources and services.